createdAt,value
2022-11-11T00:01:57.082Z,7.43
2022-11-11T00:05:04.097Z,7.87
2022-11-11T00:08:11.461Z,4.07
2022-11-11T00:11:18.521Z,5.33
2022-11-11T00:14:26.787Z,4.30
2022-11-11T00:17:52.221Z,6.33
2022-11-11T00:21:17.435Z,5.47
2022-11-11T00:24:43.989Z,7.97
2022-11-11T00:27:51.024Z,8.93
2022-11-11T00:31:05.239Z,11.57
2022-11-11T00:34:12.488Z,6.13
2022-11-11T00:37:18.646Z,5.67
2022-11-11T00:40:25.402Z,4.80
2022-11-11T00:43:32.187Z,6.93
2022-11-11T00:46:58.299Z,3.63
2022-11-11T00:50:24.015Z,13.33
2022-11-11T00:53:32.860Z,5.50
2022-11-11T00:56:39.887Z,6.17
2022-11-11T00:59:46.862Z,4.60
2022-11-11T01:02:55.263Z,3.60
2022-11-11T01:06:06.349Z,6.17
2022-11-11T01:09:13.626Z,4.47
2022-11-11T01:12:20.652Z,5.83
2022-11-11T01:15:27.753Z,5.13
2022-11-11T01:18:36.327Z,3.50
2022-11-11T01:21:43.426Z,5.43
2022-11-11T01:24:50.398Z,4.80
2022-11-11T01:27:57.245Z,4.33
2022-11-11T01:31:05.470Z,3.13
2022-11-11T01:34:13.883Z,5.17
2022-11-11T01:37:20.865Z,3.47
2022-11-11T01:40:27.963Z,4.77
2022-11-11T01:43:35.044Z,3.20
2022-11-11T01:46:44.679Z,4.90
2022-11-11T01:49:54.850Z,5.13
2022-11-11T01:53:02.146Z,4.90
2022-11-11T01:56:09.583Z,4.27
2022-11-11T01:59:17.514Z,5.67
2022-11-11T02:02:27.948Z,4.87
2022-11-11T02:05:45.587Z,6.17
2022-11-11T02:08:52.716Z,10.23
2022-11-11T02:12:17.961Z,9.30
2022-11-11T02:15:24.971Z,5.53
2022-11-11T02:18:32.182Z,5.03
2022-11-11T02:21:45.422Z,2.67
2022-11-11T02:24:54.570Z,3.70
2022-11-11T02:28:04.847Z,3.33
2022-11-11T02:31:13.495Z,2.57
2022-11-11T02:34:20.771Z,2.90
2022-11-11T02:37:28.401Z,5.80
2022-11-11T02:40:38.550Z,3.07
2022-11-11T02:43:45.372Z,4.20
2022-11-11T02:46:52.265Z,3.40
2022-11-11T02:49:58.925Z,2.90
2022-11-11T02:53:06.119Z,3.43
2022-11-11T02:56:35.516Z,3.27
2022-11-11T02:59:43.018Z,4.57
2022-11-11T03:02:50.093Z,5.77
2022-11-11T03:05:56.876Z,6.00
2022-11-11T03:09:04.280Z,4.53
2022-11-11T03:12:12.761Z,4.70
2022-11-11T03:15:19.861Z,3.80
2022-11-11T03:18:25.861Z,2.13
2022-11-11T03:22:52.864Z,4.20
2022-11-11T03:25:17.755Z,5.00
2022-11-11T03:28:26.119Z,4.90
2022-11-11T03:31:32.943Z,4.53
2022-11-11T03:34:40.240Z,2.87
2022-11-11T03:38:04.587Z,5.23
2022-11-11T03:41:11.707Z,2.13
2022-11-11T03:44:20.120Z,4.10
2022-11-11T03:47:27.237Z,2.43
2022-11-11T03:50:34.316Z,2.57
2022-11-11T03:53:41.089Z,2.90
2022-11-11T03:56:48.090Z,3.20
2022-11-11T03:59:56.671Z,4.17
2022-11-11T04:03:22.529Z,4.57
2022-11-11T04:06:47.509Z,3.53
2022-11-11T04:10:12.348Z,2.30
2022-11-11T04:13:37.135Z,2.03
2022-11-11T04:16:45.858Z,4.00
2022-11-11T04:20:10.706Z,2.27
2022-11-11T04:23:17.874Z,5.40
2022-11-11T04:26:24.044Z,3.90
2022-11-11T04:29:31.159Z,4.70
2022-11-11T04:32:39.854Z,4.17
2022-11-11T04:35:50.484Z,3.20
2022-11-11T04:39:15.102Z,2.00
2022-11-11T04:42:22.304Z,5.03
2022-11-11T04:45:31.321Z,4.60
2022-11-11T04:48:40.510Z,5.70
2022-11-11T04:52:05.384Z,4.70
2022-11-11T04:55:30.599Z,4.10
2022-11-11T04:58:37.782Z,3.53
2022-11-11T05:02:02.757Z,4.13
2022-11-11T05:05:11.341Z,4.10
2022-11-11T05:08:35.973Z,3.07
2022-11-11T05:11:43.022Z,5.50
2022-11-11T05:15:07.797Z,5.33
2022-11-11T05:18:33.017Z,5.33
2022-11-11T05:21:41.479Z,3.73
2022-11-11T05:25:05.923Z,2.47
2022-11-11T05:28:13.173Z,2.17
2022-11-11T05:31:20.231Z,3.00
2022-11-11T05:34:27.484Z,6.27
2022-11-11T05:37:36.014Z,12.00
2022-11-11T05:40:43.145Z,8.30
2022-11-11T05:43:50.335Z,8.40
2022-11-11T05:46:57.469Z,13.00
2022-11-11T05:50:04.651Z,9.23
2022-11-11T05:53:13.206Z,6.10
2022-11-11T05:56:20.045Z,9.80
2022-11-11T05:59:27.239Z,11.43
2022-11-11T06:02:34.590Z,10.10
2022-11-11T06:05:41.571Z,3.27
2022-11-11T06:08:50.003Z,4.20
2022-11-11T06:11:57.127Z,3.13
2022-11-11T06:15:04.291Z,3.23
2022-11-11T06:18:11.500Z,3.87
2022-11-11T06:21:18.678Z,6.73
2022-11-11T06:24:27.181Z,5.93
2022-11-11T06:27:34.574Z,5.50
2022-11-11T06:30:51.354Z,4.93
2022-11-11T06:33:58.416Z,8.80
2022-11-11T06:37:05.459Z,9.50
2022-11-11T06:40:18.814Z,11.73
2022-11-11T06:43:28.592Z,13.37
2022-11-11T06:46:35.991Z,21.40
2022-11-11T06:49:43.047Z,25.30
2022-11-11T06:52:50.045Z,16.07
2022-11-11T06:55:58.579Z,12.93
2022-11-11T06:59:05.566Z,38.00
2022-11-11T07:02:13.665Z,16.57
2022-11-11T07:05:03.425Z,31.23
2022-11-11T07:07:49.967Z,15.50
2022-11-11T07:10:38.491Z,12.70
2022-11-11T07:13:26.586Z,39.97
2022-11-11T07:16:13.636Z,20.53
2022-11-11T07:19:00.125Z,59.47
2022-11-11T07:21:47.273Z,22.37
2022-11-11T07:24:34.027Z,6.60
2022-11-11T07:27:20.547Z,8.17
2022-11-11T07:30:10.472Z,6.63
2022-11-11T07:32:57.395Z,12.10
2022-11-11T07:35:44.054Z,17.97
2022-11-11T07:38:30.495Z,33.27
2022-11-11T07:41:17.038Z,15.77
2022-11-11T07:44:03.635Z,58.00
2022-11-11T07:46:51.745Z,26.20
2022-11-11T07:49:38.245Z,42.53
2022-11-11T07:52:25.185Z,13.67
2022-11-11T07:55:12.047Z,24.17
2022-11-11T07:57:59.316Z,23.73
2022-11-11T08:00:45.932Z,33.53
2022-11-11T08:03:33.782Z,161.67
2022-11-11T08:06:20.620Z,60.50
2022-11-11T08:09:07.299Z,55.43
2022-11-11T08:12:11.384Z,23.77
2022-11-11T08:15:03.347Z,31.23
2022-11-11T08:17:52.625Z,44.90
2022-11-11T08:20:45.543Z,24.60
2022-11-11T08:26:40.808Z,29.27
2022-11-11T08:29:27.323Z,22.47
2022-11-11T08:32:13.943Z,41.20
2022-11-11T08:35:00.498Z,22.10
2022-11-11T08:37:48.587Z,55.47
2022-11-11T08:40:35.269Z,21.13
2022-11-11T08:43:22.806Z,24.13
2022-11-11T08:46:11.786Z,24.03
2022-11-11T08:48:58.725Z,25.00
2022-11-11T08:51:45.436Z,37.27
2022-11-11T08:54:34.313Z,53.23
2022-11-11T08:57:20.772Z,34.13
2022-11-11T09:00:09.190Z,69.47
2022-11-11T09:02:56.042Z,91.93
2022-11-11T09:05:44.085Z,84.00
2022-11-11T09:08:30.972Z,16.87
2022-11-11T09:11:19.095Z,27.77
2022-11-11T09:14:05.710Z,27.90
2022-11-11T09:16:52.394Z,78.17
2022-11-11T09:19:39.022Z,27.67
2022-11-11T09:22:25.752Z,34.47
2022-11-11T09:25:12.581Z,98.93
2022-11-11T09:28:01.467Z,19.23
2022-11-11T09:30:47.995Z,13.30
2022-11-11T09:33:34.556Z,159.00
2022-11-11T09:36:21.829Z,24.57
2022-11-11T09:39:08.625Z,21.00
2022-11-11T09:42:06.267Z,20.37
2022-11-11T09:45:17.092Z,22.13
2022-11-11T09:48:10.512Z,14.10
2022-11-11T09:50:58.594Z,44.73
2022-11-11T09:53:49.038Z,25.07
2022-11-11T09:56:35.806Z,25.30
2022-11-11T09:59:25.169Z,60.20
2022-11-11T10:02:21.443Z,33.27
2022-11-11T10:05:12.769Z,26.93
2022-11-11T10:08:01.736Z,28.63
2022-11-11T10:10:49.829Z,26.73
2022-11-11T10:13:37.625Z,20.80
2022-11-11T10:16:29.496Z,66.47
2022-11-11T10:19:27.949Z,83.77
2022-11-11T10:22:23.219Z,66.30
2022-11-11T10:25:21.888Z,18.00
2022-11-11T10:28:10.691Z,221.97
2022-11-11T10:30:57.299Z,99.47
2022-11-11T10:33:47.668Z,14.80
2022-11-11T10:36:37.344Z,87.23
2022-11-11T10:39:27.226Z,109.90
2022-11-11T10:42:17.465Z,16.87
2022-11-11T10:45:04.700Z,16.43
2022-11-11T10:47:56.404Z,35.53
2022-11-11T10:50:45.554Z,37.80
2022-11-11T10:53:38.739Z,28.70
2022-11-11T10:56:29.914Z,45.67
2022-11-11T10:59:19.776Z,43.67
2022-11-11T11:02:12.150Z,22.70
2022-11-11T11:05:03.358Z,95.57
2022-11-11T11:07:52.899Z,47.53
2022-11-11T11:10:43.938Z,81.37
2022-11-11T11:13:35.859Z,70.73
2022-11-11T11:16:26.710Z,55.73
2022-11-11T11:19:21.630Z,83.67
2022-11-11T11:22:09.094Z,115.37
2022-11-11T11:25:10.454Z,34.70
2022-11-11T11:28:09.949Z,87.33
2022-11-11T11:31:00.846Z,128.30
2022-11-11T11:33:54.054Z,73.67
2022-11-11T11:36:41.601Z,43.17
2022-11-11T11:39:35.985Z,102.83
2022-11-11T11:42:30.735Z,35.10
2022-11-11T11:45:23.854Z,33.30
2022-11-11T11:48:36.730Z,20.43
2022-11-11T11:51:33.748Z,40.80
2022-11-11T11:54:55.582Z,19.17
2022-11-11T11:57:54.372Z,27.00
2022-11-11T12:00:47.348Z,25.33
2022-11-11T12:04:25.081Z,34.83
2022-11-11T12:07:26.628Z,25.23
2022-11-11T12:10:32.496Z,25.17
2022-11-11T12:13:31.005Z,32.97
2022-11-11T12:19:51.958Z,25.10
2022-11-11T12:22:49.433Z,33.33
2022-11-11T12:25:49.326Z,24.70
2022-11-11T12:28:52.453Z,52.23
2022-11-11T12:31:58.698Z,22.03
2022-11-11T12:35:08.251Z,25.93
2022-11-11T12:38:20.494Z,31.73
2022-11-11T12:41:15.469Z,24.63
2022-11-11T12:44:06.226Z,19.50
2022-11-11T12:47:08.878Z,18.77
2022-11-11T12:49:59.910Z,16.57
2022-11-11T12:53:02.013Z,17.70
2022-11-11T12:55:53.728Z,19.90
2022-11-11T12:58:45.141Z,28.60
2022-11-11T13:01:44.722Z,22.97
2022-11-11T13:04:41.538Z,25.33
2022-11-11T13:08:00.704Z,20.67
2022-11-11T13:10:53.438Z,19.93
2022-11-11T13:13:54.553Z,28.17
2022-11-11T13:16:41.653Z,20.23
2022-11-11T13:19:36.022Z,24.87
2022-11-11T13:22:27.633Z,89.70
2022-11-11T13:25:17.182Z,34.67
2022-11-11T13:28:07.250Z,33.90
2022-11-11T13:31:16.658Z,78.13
2022-11-11T13:34:05.681Z,106.50
2022-11-11T13:36:54.997Z,55.03
2022-11-11T13:39:45.293Z,25.50
2022-11-11T13:42:37.292Z,23.20
2022-11-11T13:45:28.195Z,33.50
2022-11-11T13:48:24.979Z,33.30
2022-11-11T13:51:15.519Z,65.70
2022-11-11T13:54:03.943Z,251.90
2022-11-11T13:56:50.653Z,176.97
2022-11-11T13:59:39.318Z,51.87
2022-11-11T14:02:32.977Z,32.13
2022-11-11T14:05:23.884Z,87.50
2022-11-11T14:08:10.937Z,57.43
2022-11-11T14:11:00.119Z,39.83
2022-11-11T14:13:47.127Z,124.73
2022-11-11T14:17:02.556Z,72.87
2022-11-11T14:19:49.350Z,48.97
2022-11-11T14:22:36.067Z,56.93
2022-11-11T14:25:25.614Z,100.33
2022-11-11T14:28:23.590Z,122.57
2022-11-11T14:31:57.544Z,125.37
2022-11-11T14:34:59.558Z,35.97
2022-11-11T14:38:36.629Z,99.57
2022-11-11T14:41:45.443Z,39.30
2022-11-11T14:44:45.630Z,35.37
2022-11-11T14:47:36.486Z,40.67
2022-11-11T14:50:45.265Z,39.63
2022-11-11T14:53:36.391Z,47.13
2022-11-11T14:56:23.125Z,40.73
2022-11-11T14:59:09.829Z,102.20
2022-11-11T15:01:57.954Z,51.93
2022-11-11T15:04:44.827Z,48.50
2022-11-11T15:07:43.107Z,63.70
2022-11-11T15:11:07.438Z,42.63
2022-11-11T15:14:13.424Z,43.83
2022-11-11T15:17:18.219Z,98.73
2022-11-11T15:20:42.536Z,137.30
2022-11-11T15:23:32.966Z,107.70
2022-11-11T15:26:22.830Z,51.73
2022-11-11T15:29:25.599Z,52.60
2022-11-11T15:32:20.285Z,63.23
2022-11-11T15:35:25.001Z,49.73
2022-11-11T15:38:14.201Z,127.70
2022-11-11T15:41:01.529Z,116.37
2022-11-11T15:43:48.250Z,42.83
2022-11-11T15:46:37.155Z,226.63
2022-11-11T15:49:41.634Z,68.83
2022-11-11T15:52:32.294Z,104.87
2022-11-11T15:55:23.906Z,196.20
2022-11-11T15:58:16.781Z,138.30
2022-11-11T16:01:05.346Z,172.03
2022-11-11T16:03:52.088Z,139.27
2022-11-11T16:06:40.180Z,127.57
2022-11-11T16:09:29.577Z,102.50
2022-11-11T16:12:20.715Z,138.03
2022-11-11T16:15:09.940Z,151.37
2022-11-11T16:17:59.913Z,112.37
2022-11-11T16:20:50.065Z,114.97
2022-11-11T16:23:38.332Z,119.47
2022-11-11T16:26:25.894Z,64.23
2022-11-11T16:29:15.743Z,39.33
2022-11-11T16:32:03.472Z,47.23
2022-11-11T16:34:50.413Z,45.83
2022-11-11T16:37:52.109Z,50.13
2022-11-11T16:40:43.905Z,31.93
2022-11-11T16:43:32.042Z,40.47
2022-11-11T16:46:40.796Z,24.53
2022-11-11T16:49:28.857Z,40.70
2022-11-11T16:52:18.323Z,29.10
2022-11-11T16:55:05.658Z,34.27
2022-11-11T16:57:53.655Z,26.20
2022-11-11T17:00:40.335Z,27.37
2022-11-11T17:03:27.361Z,23.87
2022-11-11T17:06:14.765Z,20.93
2022-11-11T17:09:01.266Z,23.57
2022-11-11T17:11:47.886Z,28.17
2022-11-11T17:14:37.359Z,40.53
2022-11-11T17:17:24.205Z,213.00
2022-11-11T17:20:13.466Z,37.53
2022-11-11T17:23:00.478Z,30.00
2022-11-11T17:25:47.343Z,32.47
2022-11-11T17:28:35.649Z,42.43
2022-11-11T17:31:24.622Z,110.23
2022-11-11T17:34:11.723Z,114.30
2022-11-11T17:36:58.398Z,68.03
2022-11-11T17:39:45.021Z,64.17
2022-11-11T17:42:32.343Z,115.40
2022-11-11T17:45:19.223Z,105.33
2022-11-11T17:48:08.166Z,97.00
2022-11-11T17:50:55.045Z,277.30
2022-11-11T17:53:41.692Z,102.93
2022-11-11T17:56:28.130Z,239.47
2022-11-11T17:59:14.668Z,129.13
2022-11-11T18:02:01.986Z,81.77
2022-11-11T18:04:50.246Z,70.97
2022-11-11T18:07:39.120Z,177.33
2022-11-11T18:10:29.194Z,106.00
2022-11-11T18:13:15.842Z,153.90
2022-11-11T18:16:06.024Z,161.90
2022-11-11T18:18:54.441Z,237.30
2022-11-11T18:21:43.014Z,205.77
2022-11-11T18:24:29.780Z,77.93
2022-11-11T18:27:16.868Z,78.10
2022-11-11T18:30:03.610Z,96.43
2022-11-11T18:32:50.185Z,71.70
2022-11-11T18:35:36.920Z,90.10
2022-11-11T18:38:24.747Z,101.53
2022-11-11T18:41:13.580Z,137.53
2022-11-11T18:44:00.450Z,107.67
2022-11-11T18:46:47.239Z,70.07
2022-11-11T18:49:33.816Z,65.37
2022-11-11T18:52:20.359Z,83.67
2022-11-11T18:55:09.493Z,47.67
2022-11-11T18:57:56.271Z,55.07
2022-11-11T19:00:42.853Z,47.67
2022-11-11T19:03:29.679Z,38.37
2022-11-11T19:06:16.476Z,31.73
2022-11-11T19:09:06.294Z,24.37
2022-11-11T19:11:54.601Z,16.50
2022-11-11T19:14:41.871Z,32.90
2022-11-11T19:17:28.350Z,29.83
2022-11-11T19:20:14.957Z,18.97
2022-11-11T19:23:01.512Z,30.17
2022-11-11T19:25:47.948Z,35.27
2022-11-11T19:28:36.185Z,25.53
2022-11-11T19:31:24.998Z,26.37
2022-11-11T19:34:12.046Z,33.53
2022-11-11T19:36:58.908Z,31.90
2022-11-11T19:39:45.619Z,21.57
2022-11-11T19:42:32.383Z,30.70
2022-11-11T19:45:20.314Z,21.17
2022-11-11T19:48:07.534Z,16.80
2022-11-11T19:50:54.372Z,16.57
2022-11-11T19:53:40.961Z,11.33
2022-11-11T19:56:30.975Z,13.03
2022-11-11T19:59:17.959Z,12.80
2022-11-11T20:02:06.140Z,10.53
2022-11-11T20:04:52.654Z,9.57
2022-11-11T20:07:39.220Z,10.00
2022-11-11T20:10:25.770Z,12.13
2022-11-11T20:13:12.431Z,13.07
2022-11-11T20:16:02.170Z,13.50
2022-11-11T20:18:50.638Z,27.90
2022-11-11T20:21:37.130Z,21.97
2022-11-11T20:24:23.594Z,9.30
2022-11-11T20:27:10.226Z,9.50
2022-11-11T20:29:56.729Z,9.57
2022-11-11T20:32:44.563Z,9.03
2022-11-11T20:35:38.298Z,11.57
2022-11-11T20:38:25.121Z,14.90
2022-11-11T20:41:12.482Z,8.20
2022-11-11T20:43:59.558Z,8.90
2022-11-11T20:46:46.337Z,10.97
2022-11-11T20:49:34.169Z,7.93
2022-11-11T20:52:22.102Z,10.00
2022-11-11T20:55:09.372Z,8.80
2022-11-11T20:57:55.753Z,18.40
2022-11-11T21:00:42.381Z,21.50
2022-11-11T21:03:53.222Z,13.53
2022-11-11T21:06:59.927Z,15.03
2022-11-11T21:10:09.171Z,30.30
2022-11-11T21:13:16.184Z,43.83
2022-11-11T21:16:24.789Z,58.67
2022-11-11T21:19:31.805Z,51.77
2022-11-11T21:22:38.887Z,46.47
2022-11-11T21:25:47.472Z,15.80
2022-11-11T21:28:54.622Z,19.63
2022-11-11T21:32:01.647Z,11.90
2022-11-11T21:35:09.762Z,6.40
2022-11-11T21:38:16.971Z,8.40
2022-11-11T21:41:26.547Z,7.80
2022-11-11T21:44:33.806Z,8.40
2022-11-11T21:47:41.017Z,11.23
2022-11-11T21:50:48.144Z,9.53
2022-11-11T21:54:01.105Z,9.80
2022-11-11T21:57:10.898Z,7.17
2022-11-11T22:00:19.536Z,6.30
2022-11-11T22:03:26.324Z,5.83
2022-11-11T22:06:33.435Z,8.27
2022-11-11T22:09:40.587Z,7.80
2022-11-11T22:12:49.073Z,6.53
2022-11-11T22:16:00.749Z,5.50
2022-11-11T22:19:09.340Z,8.93
2022-11-11T22:22:16.321Z,5.10
2022-11-11T22:25:23.351Z,8.20
2022-11-11T22:28:32.098Z,6.07
2022-11-11T22:31:39.105Z,5.90
2022-11-11T22:34:46.179Z,5.27
2022-11-11T22:37:53.355Z,7.77
2022-11-11T22:41:04.054Z,6.70
2022-11-11T22:44:12.364Z,5.50
2022-11-11T22:47:19.302Z,4.93
2022-11-11T22:50:26.400Z,6.07
2022-11-11T22:53:33.737Z,23.80
2022-11-11T22:56:41.145Z,13.60
2022-11-11T22:59:49.581Z,6.63
2022-11-11T23:02:59.001Z,4.47
2022-11-11T23:06:07.088Z,4.20
2022-11-11T23:09:13.985Z,4.27
2022-11-11T23:12:21.121Z,4.63
2022-11-11T23:15:29.414Z,4.10
2022-11-11T23:18:36.573Z,4.57
2022-11-11T23:21:43.866Z,4.90
2022-11-11T23:24:50.858Z,14.70
2022-11-11T23:27:58.023Z,12.57
2022-11-11T23:31:07.927Z,8.93
2022-11-11T23:34:14.811Z,5.20
2022-11-11T23:37:21.889Z,31.43
2022-11-11T23:40:28.748Z,7.13
2022-11-11T23:43:35.846Z,27.30
2022-11-11T23:46:44.136Z,17.63
2022-11-11T23:49:51.028Z,21.73
2022-11-11T23:52:57.741Z,28.30
2022-11-11T23:56:05.597Z,17.60
2022-11-11T23:59:12.343Z,9.00
